Time;durP1;ratioP1;P1;durP2;ratioP2;P2;SDS_P1;SDS_P2;PMS_P1;PMS_P2;Temp;Humidity;BMP_temperature;BMP_pressure;BME280_temperature;BME280_humidity;BME280_pressure;Samples;Min_cycle;Max_cycle;Signal;HPM_P1;HPM_P2
2023/06/13 00:02:01;;;;;;;6.70;4.68;;;19.50;57.20;;;;;;5050011;28;20045;-61
2023/06/13 00:04:30;;;;;;;6.72;4.88;;;19.50;57.10;;;;;;5030607;28;20037;-61
2023/06/13 00:07:00;;;;;;;8.45;4.93;;;19.50;57.00;;;;;;5038820;28;20303;-61
2023/06/13 00:09:25;;;;;;;7.78;4.75;;;19.40;56.80;;;;;;5053235;28;20032;-61
2023/06/13 00:11:52;;;;;;;8.77;4.60;;;19.40;56.90;;;;;;5053336;28;20500;-61
2023/06/13 00:14:19;;;;;;;6.65;4.70;;;19.40;57.00;;;;;;5031823;28;20037;-61
2023/06/13 00:16:50;;;;;;;7.95;4.45;;;19.30;56.80;;;;;;5047814;28;20120;-61
2023/06/13 00:19:17;;;;;;;10.00;5.20;;;19.40;56.70;;;;;;5060039;28;20434;-61
2023/06/13 00:21:45;;;;;;;10.60;5.13;;;19.30;56.50;;;;;;5038486;28;20397;-64
2023/06/13 00:24:11;;;;;;;6.65;4.70;;;19.30;56.40;;;;;;5051906;28;20029;-62
2023/06/13 00:26:37;;;;;;;8.52;5.07;;;19.30;56.40;;;;;;5050729;28;20044;-61
2023/06/13 00:29:03;;;;;;;12.65;5.32;;;19.30;56.50;;;;;;5049083;28;20056;-61
2023/06/13 00:31:29;;;;;;;8.68;5.05;;;19.30;56.50;;;;;;5053324;28;20032;-64
2023/06/13 00:33:59;;;;;;;6.75;4.93;;;19.30;56.50;;;;;;5027527;28;20073;-61
2023/06/13 00:36:27;;;;;;;7.13;4.65;;;19.30;56.40;;;;;;5053101;28;20032;-64
2023/06/13 00:38:54;;;;;;;11.60;5.20;;;19.30;56.40;;;;;;5052892;28;20080;-65
2023/06/13 00:41:20;;;;;;;8.55;4.78;;;19.30;56.30;;;;;;5054165;28;20112;-61
2023/06/13 00:43:46;;;;;;;7.85;5.28;;;19.20;56.20;;;;;;5047753;28;20116;-61
2023/06/13 00:46:17;;;;;;;10.45;5.13;;;19.20;56.30;;;;;;5031648;28;20043;-61
2023/06/13 00:48:44;;;;;;;8.47;4.90;;;19.20;56.40;;;;;;5028961;28;20044;-63
2023/06/13 00:51:14;;;;;;;15.65;6.07;;;19.10;56.40;;;;;;5046728;28;20032;-61
2023/06/13 00:53:42;;;;;;;7.07;4.93;;;19.10;56.40;;;;;;5041526;28;20047;-61
2023/06/13 00:56:09;;;;;;;9.43;5.03;;;19.10;56.50;;;;;;5046018;28;20037;-61
2023/06/13 00:58:36;;;;;;;7.40;5.32;;;19.10;56.60;;;;;;5030869;28;20041;-61
2023/06/13 01:01:04;;;;;;;9.30;5.10;;;19.00;56.70;;;;;;5038918;28;20038;-65
2023/06/13 01:03:34;;;;;;;9.10;5.57;;;19.00;56.80;;;;;;5022958;28;20087;-62
2023/06/13 01:06:00;;;;;;;8.32;5.43;;;19.00;56.90;;;;;;5024782;28;20083;-65
2023/06/13 01:08:27;;;;;;;8.20;4.88;;;18.90;57.10;;;;;;5025219;28;20047;-64
2023/06/13 01:11:31;;;;;;;10.48;5.57;;;18.90;57.30;;;;;;5048128;28;20097;-61
2023/06/13 01:14:14;;;;;;;7.78;5.30;;;18.80;57.40;;;;;;5032584;28;20041;-67
2023/06/13 01:16:47;;;;;;;9.27;5.32;;;18.80;57.50;;;;;;5035807;28;20078;-65
2023/06/13 01:19:31;;;;;;;8.35;5.70;;;18.70;57.40;;;;;;5023798;28;20118;-61
2023/06/13 01:21:58;;;;;;;8.57;5.68;;;18.70;57.30;;;;;;5032513;28;20033;-61
2023/06/13 01:24:41;;;;;;;9.05;6.00;;;18.70;57.30;;;;;;5038858;28;20035;-61
2023/06/13 01:27:10;;;;;;;12.38;5.38;;;18.70;57.20;;;;;;5024691;28;20052;-61
2023/06/13 01:29:37;;;;;;;9.32;5.90;;;18.70;57.30;;;;;;5024020;28;20123;-61
2023/06/13 01:32:04;;;;;;;9.77;6.03;;;18.60;57.30;;;;;;5022056;28;20084;-63
2023/06/13 01:34:30;;;;;;;7.85;5.57;;;18.70;57.40;;;;;;5049936;28;20106;-61
2023/06/13 01:36:57;;;;;;;8.13;5.70;;;18.60;57.40;;;;;;5060535;28;20475;-61
2023/06/13 01:39:22;;;;;;;10.82;5.78;;;18.60;57.50;;;;;;5037985;28;20053;-62
2023/06/13 01:41:48;;;;;;;12.10;6.15;;;18.60;57.70;;;;;;5048368;28;20522;-64
2023/06/13 01:44:18;;;;;;;10.35;6.22;;;18.50;57.80;;;;;;5049352;28;20036;-61
2023/06/13 01:47:12;;;;;;;7.70;5.78;;;18.50;57.90;;;;;;5032243;28;20042;-61
2023/06/13 01:50:11;;;;;;;11.10;6.25;;;18.50;57.80;;;;;;5047714;28;20045;-61
2023/06/13 01:52:50;;;;;;;8.70;6.05;;;18.50;57.70;;;;;;5048922;28;20513;-64
2023/06/13 01:55:29;;;;;;;10.10;6.18;;;18.50;57.70;;;;;;5047574;28;20120;-61
2023/06/13 01:58:05;;;;;;;10.15;6.35;;;18.50;57.70;;;;;;5027831;28;20091;-64
2023/06/13 02:00:32;;;;;;;10.15;6.25;;;18.50;57.90;;;;;;5020983;28;20047;-61
2023/06/13 02:02:59;;;;;;;14.43;6.72;;;18.40;57.80;;;;;;5026206;28;20511;-61
2023/06/13 02:05:26;;;;;;;10.00;6.03;;;18.40;57.80;;;;;;5044997;28;20433;-64
2023/06/13 02:07:53;;;;;;;8.70;6.22;;;18.30;57.90;;;;;;5045030;28;20410;-61
2023/06/13 02:10:19;;;;;;;13.40;6.38;;;18.40;58.00;;;;;;5045720;28;20439;-62
2023/06/13 02:12:44;;;;;;;9.85;6.40;;;18.30;58.10;;;;;;5061799;28;20078;-61
2023/06/13 02:15:10;;;;;;;12.50;6.85;;;18.30;58.20;;;;;;5032341;28;20072;-61
2023/06/13 02:17:36;;;;;;;12.38;6.35;;;18.20;58.10;;;;;;5053524;28;20746;-61
2023/06/13 02:20:03;;;;;;;10.98;6.55;;;18.20;58.20;;;;;;5033725;28;20087;-61
2023/06/13 02:22:29;;;;;;;9.63;6.10;;;18.20;58.30;;;;;;5053520;28;20033;-61
2023/06/13 02:24:55;;;;;;;9.48;6.53;;;18.20;58.40;;;;;;5022871;28;20091;-61
2023/06/13 02:27:20;;;;;;;11.98;6.32;;;18.10;58.40;;;;;;5023453;28;20037;-61
2023/06/13 02:29:46;;;;;;;9.10;6.70;;;18.10;58.50;;;;;;5053794;28;20045;-62
2023/06/13 02:32:12;;;;;;;8.27;6.18;;;18.10;58.40;;;;;;5046860;28;20032;-64
2023/06/13 02:34:37;;;;;;;12.00;6.05;;;18.10;58.40;;;;;;5036431;28;20041;-61
2023/06/13 02:37:03;;;;;;;13.27;6.50;;;18.10;58.50;;;;;;5057057;28;20037;-61
2023/06/13 02:39:29;;;;;;;14.18;7.03;;;18.10;58.70;;;;;;5041547;28;20041;-61
2023/06/13 02:41:54;;;;;;;9.90;6.50;;;18.00;58.70;;;;;;5042871;28;20037;-62
2023/06/13 02:44:20;;;;;;;10.30;6.53;;;18.00;58.80;;;;;;5054449;28;20033;-64
2023/06/13 02:46:45;;;;;;;11.07;6.72;;;18.00;58.90;;;;;;5053295;28;20029;-61
2023/06/13 02:49:11;;;;;;;11.23;6.70;;;18.00;59.50;;;;;;5049751;28;20112;-62
2023/06/13 02:51:36;;;;;;;14.07;6.82;;;18.00;59.10;;;;;;5053887;22;20055;-63
2023/06/13 02:54:02;;;;;;;10.55;6.38;;;18.00;59.10;;;;;;5057316;28;20041;-62
2023/06/13 02:56:29;;;;;;;13.00;6.40;;;17.90;59.10;;;;;;5029237;28;20102;-65
2023/06/13 02:58:54;;;;;;;11.82;6.65;;;17.90;59.30;;;;;;5027655;28;20119;-64
2023/06/13 03:01:20;;;;;;;10.65;6.45;;;17.90;59.30;;;;;;5034228;28;20130;-66
2023/06/13 03:03:48;;;;;;;10.27;6.53;;;17.80;59.30;;;;;;5042657;28;20044;-66
2023/06/13 03:06:17;;;;;;;10.05;7.13;;;17.90;59.40;;;;;;5041098;28;20052;-66
2023/06/13 03:08:44;;;;;;;11.02;6.60;;;17.90;59.40;;;;;;5041454;28;20053;-63
2023/06/13 03:11:09;;;;;;;9.80;6.40;;;17.80;59.40;;;;;;5034615;28;20029;-66
2023/06/13 03:13:35;;;;;;;8.07;6.45;;;17.80;59.50;;;;;;5047486;28;20510;-64
2023/06/13 03:16:03;;;;;;;10.32;6.57;;;17.80;59.70;;;;;;5030875;28;20045;-66
2023/06/13 03:18:28;;;;;;;12.82;6.90;;;17.80;59.80;;;;;;5032504;28;20052;-66
2023/06/13 03:20:54;;;;;;;8.50;6.13;;;17.80;59.90;;;;;;5045462;28;20041;-66
2023/06/13 03:23:20;;;;;;;11.88;6.80;;;17.70;59.80;;;;;;5053076;28;20036;-66
2023/06/13 03:25:46;;;;;;;11.15;6.47;;;17.70;59.90;;;;;;5039854;28;20073;-66
2023/06/13 03:28:12;;;;;;;9.85;6.70;;;17.70;60.60;;;;;;5027485;28;20557;-63
2023/06/13 03:30:38;;;;;;;8.80;6.35;;;17.70;60.10;;;;;;5020049;28;20045;-63
2023/06/13 03:33:04;;;;;;;10.60;6.90;;;17.70;60.30;;;;;;5041094;28;20040;-64
2023/06/13 03:35:29;;;;;;;11.77;6.60;;;17.70;60.50;;;;;;5039085;28;20040;-65
2023/06/13 03:37:55;;;;;;;11.23;6.65;;;17.60;60.60;;;;;;5024620;28;20099;-66
2023/06/13 03:40:21;;;;;;;12.60;5.88;;;17.60;60.70;;;;;;5024335;28;20488;-66
2023/06/13 03:42:47;;;;;;;11.23;6.30;;;17.60;60.80;;;;;;5023963;28;20047;-66
2023/06/13 03:45:15;;;;;;;10.05;6.13;;;17.60;60.90;;;;;;5044255;28;20494;-66
2023/06/13 03:47:41;;;;;;;11.68;6.55;;;17.60;61.00;;;;;;5035015;28;20050;-66
2023/06/13 03:50:07;;;;;;;10.43;6.03;;;17.50;61.00;;;;;;5049722;28;20037;-66
2023/06/13 03:52:32;;;;;;;11.52;6.82;;;17.50;61.20;;;;;;5042739;28;20479;-66
2023/06/13 03:54:58;;;;;;;12.23;6.72;;;17.50;61.20;;;;;;5042908;28;20033;-65
2023/06/13 03:57:24;;;;;;;10.38;6.40;;;17.50;61.40;;;;;;5048621;28;20503;-65
2023/06/13 03:59:51;;;;;;;8.23;6.50;;;17.50;61.60;;;;;;5044820;28;20247;-66
2023/06/13 04:02:19;;;;;;;9.50;6.40;;;17.50;61.80;;;;;;5049884;28;20040;-65
2023/06/13 04:04:46;;;;;;;11.98;6.50;;;17.50;61.90;;;;;;5045646;28;20041;-65
2023/06/13 04:07:13;;;;;;;11.52;6.53;;;17.50;62.00;;;;;;5022166;28;20515;-66
2023/06/13 04:09:38;;;;;;;8.50;5.63;;;17.50;61.90;;;;;;5028107;28;20037;-63
2023/06/13 04:12:05;;;;;;;9.93;5.90;;;17.50;62.00;;;;;;5035753;28;20513;-66
2023/06/13 04:14:32;;;;;;;10.68;6.30;;;17.50;62.10;;;;;;5037495;28;20038;-65
2023/06/13 04:16:59;;;;;;;10.55;6.50;;;17.50;62.20;;;;;;5043454;28;20045;-66
2023/06/13 04:19:25;;;;;;;12.73;6.70;;;17.50;62.30;;;;;;5044154;28;20057;-65
2023/06/13 04:21:51;;;;;;;10.52;6.05;;;17.40;62.40;;;;;;5039231;28;20418;-66
2023/06/13 04:24:17;;;;;;;11.25;5.70;;;17.40;62.70;;;;;;5029698;28;20205;-65
2023/06/13 04:26:46;;;;;;;9.65;6.10;;;17.40;63.00;;;;;;5021932;28;20126;-65
2023/06/13 04:29:13;;;;;;;12.70;6.25;;;17.40;63.10;;;;;;5035146;28;20558;-65
2023/06/13 04:31:42;;;;;;;10.38;6.20;;;17.40;63.10;;;;;;5029491;28;20045;-66
2023/06/13 04:34:11;;;;;;;10.13;6.07;;;17.40;63.10;;;;;;5021424;28;20044;-66
2023/06/13 04:36:38;;;;;;;9.98;6.28;;;17.40;63.10;;;;;;5017053;28;20124;-62
2023/06/13 04:39:06;;;;;;;11.10;6.07;;;17.40;63.10;;;;;;5012740;28;20037;-66
2023/06/13 04:41:37;;;;;;;7.85;5.93;;;17.40;63.10;;;;;;5035172;28;20455;-64
2023/06/13 04:44:05;;;;;;;8.90;6.20;;;17.40;63.30;;;;;;5011472;28;20076;-66
2023/06/13 04:46:32;;;;;;;8.32;5.90;;;17.50;63.40;;;;;;5029416;28;20041;-66
2023/06/13 04:48:57;;;;;;;8.00;5.72;;;17.40;63.40;;;;;;5030788;28;20038;-63
2023/06/13 04:51:26;;;;;;;8.57;5.97;;;17.40;63.70;;;;;;5037749;28;20037;-66
2023/06/13 04:53:53;;;;;;;7.55;5.40;;;17.40;64.00;;;;;;5035148;28;20131;-66
2023/06/13 04:56:19;;;;;;;8.40;5.60;;;17.40;64.00;;;;;;5013263;28;20037;-66
2023/06/13 04:58:44;;;;;;;12.73;5.75;;;17.40;64.10;;;;;;5015574;28;20086;-66
2023/06/13 05:01:13;;;;;;;8.93;6.03;;;17.40;64.20;;;;;;5025298;28;20098;-64
2023/06/13 05:03:40;;;;;;;10.80;5.93;;;17.40;64.30;;;;;;5034236;28;20033;-65
2023/06/13 05:06:07;;;;;;;10.15;6.25;;;17.40;64.30;;;;;;5006985;28;20053;-64
2023/06/13 05:08:34;;;;;;;9.35;5.97;;;17.40;64.60;;;;;;5014442;28;20064;-64
2023/06/13 05:11:00;;;;;;;9.07;5.72;;;17.40;64.70;;;;;;5027278;28;20041;-63
2023/06/13 05:13:26;;;;;;;7.32;5.28;;;17.40;64.70;;;;;;5023600;28;20057;-64
2023/06/13 05:15:51;;;;;;;8.18;5.53;;;17.50;64.80;;;;;;5023590;28;20041;-65
2023/06/13 05:18:17;;;;;;;9.15;5.30;;;17.50;64.80;;;;;;5041026;28;20199;-64
2023/06/13 05:20:43;;;;;;;9.57;5.63;;;17.50;64.90;;;;;;5035436;28;20034;-64
2023/06/13 05:23:10;;;;;;;9.52;5.50;;;17.50;65.00;;;;;;5017541;28;20117;-64
2023/06/13 05:25:36;;;;;;;7.68;5.43;;;17.50;65.20;;;;;;5040236;28;20465;-65
2023/06/13 05:28:03;;;;;;;10.55;5.55;;;17.50;65.30;;;;;;5042908;28;20407;-65
2023/06/13 05:30:29;;;;;;;7.88;5.38;;;17.50;65.20;;;;;;5045900;28;20390;-62
2023/06/13 05:32:54;;;;;;;9.45;5.43;;;17.50;65.20;;;;;;5034801;28;20033;-65
2023/06/13 05:35:20;;;;;;;8.35;5.65;;;17.60;65.60;;;;;;5030243;28;20216;-65
2023/06/13 05:37:46;;;;;;;8.77;5.40;;;17.60;65.50;;;;;;5027739;28;20048;-65
2023/06/13 05:40:12;;;;;;;9.38;5.55;;;17.60;65.60;;;;;;5035558;28;20029;-65
2023/06/13 05:42:38;;;;;;;11.75;5.43;;;17.60;65.70;;;;;;5019376;28;20048;-64
2023/06/13 05:45:06;;;;;;;8.20;5.25;;;17.70;65.70;;;;;;5016456;28;20037;-65
2023/06/13 05:47:32;;;;;;;9.00;5.00;;;17.70;65.70;;;;;;5033760;28;20092;-64
2023/06/13 05:49:58;;;;;;;10.98;5.30;;;17.70;66.20;;;;;;5008278;28;20140;-65
2023/06/13 05:52:24;;;;;;;9.52;5.25;;;17.70;65.40;;;;;;5033185;28;20045;-66
2023/06/13 05:54:50;;;;;;;8.18;5.13;;;17.70;65.20;;;;;;4999681;28;20038;-65
2023/06/13 05:57:16;;;;;;;10.38;4.85;;;17.80;65.60;;;;;;5030143;28;20090;-63
2023/06/13 05:59:41;;;;;;;9.30;5.18;;;17.80;65.90;;;;;;5031772;28;20369;-63
2023/06/13 06:02:09;;;;;;;10.32;5.53;;;17.80;65.80;;;;;;5022885;28;20032;-63
2023/06/13 06:04:35;;;;;;;10.77;4.85;;;17.90;65.60;;;;;;5038692;28;20498;-63
2023/06/13 06:07:01;;;;;;;10.48;5.00;;;17.90;65.50;;;;;;5039386;28;20037;-63
2023/06/13 06:09:26;;;;;;;8.45;5.05;;;17.90;65.50;;;;;;5037048;28;20037;-63
2023/06/13 06:11:52;;;;;;;7.63;4.70;;;18.00;65.70;;;;;;5037204;28;20030;-63
2023/06/13 06:14:18;;;;;;;9.57;5.18;;;18.00;65.80;;;;;;5046399;28;20094;-63
2023/06/13 06:16:43;;;;;;;9.57;4.72;;;18.00;65.80;;;;;;5041731;28;20099;-63
2023/06/13 06:19:09;;;;;;;8.50;4.80;;;18.10;65.50;;;;;;5046877;28;20542;-63
2023/06/13 06:21:35;;;;;;;6.60;4.30;;;18.10;65.40;;;;;;5036823;28;20087;-63
2023/06/13 06:24:01;;;;;;;8.20;4.68;;;18.10;65.30;;;;;;5032370;28;20076;-63
2023/06/13 06:26:26;;;;;;;8.90;4.63;;;18.10;64.90;;;;;;5045296;28;20072;-63
2023/06/13 06:28:52;;;;;;;8.65;4.68;;;18.20;64.80;;;;;;5040270;28;20072;-63
2023/06/13 06:31:18;;;;;;;7.30;4.80;;;18.20;64.70;;;;;;5042651;28;20099;-63
2023/06/13 06:33:44;;;;;;;8.35;4.70;;;18.20;64.80;;;;;;5046290;28;20048;-63
2023/06/13 06:36:10;;;;;;;6.45;4.68;;;18.30;64.70;;;;;;5029805;28;20129;-63
2023/06/13 06:38:35;;;;;;;9.52;4.97;;;18.30;64.50;;;;;;5036402;28;20041;-63
2023/06/13 06:41:01;;;;;;;9.32;4.45;;;18.30;64.40;;;;;;5048306;28;20044;-63
2023/06/13 06:43:27;;;;;;;9.85;4.82;;;18.40;64.70;;;;;;5040096;28;20037;-63
2023/06/13 06:45:52;;;;;;;8.20;4.88;;;18.40;64.70;;;;;;5041065;28;20045;-63
2023/06/13 06:48:18;;;;;;;11.35;4.50;;;18.40;64.60;;;;;;5021221;28;20052;-61
2023/06/13 06:50:43;;;;;;;11.05;4.53;;;18.50;64.50;;;;;;5023397;28;20072;-61
2023/06/13 06:53:09;;;;;;;9.73;4.70;;;18.50;64.30;;;;;;5031236;28;20044;-61
2023/06/13 06:55:35;;;;;;;6.65;4.07;;;18.60;64.80;;;;;;5045950;28;20042;-61
2023/06/13 06:58:00;;;;;;;10.98;4.40;;;18.60;65.10;;;;;;5042957;28;20167;-61
2023/06/13 07:00:26;;;;;;;10.95;4.47;;;18.70;64.90;;;;;;5047349;28;20091;-61
2023/06/13 07:02:52;;;;;;;8.93;4.70;;;18.70;64.80;;;;;;5025337;28;20127;-61
2023/06/13 07:05:18;;;;;;;8.55;4.70;;;18.70;64.90;;;;;;5040305;28;20153;-61
2023/06/13 07:07:44;;;;;;;10.75;4.60;;;18.70;64.80;;;;;;5042173;28;20029;-61
2023/06/13 07:10:10;;;;;;;9.57;4.68;;;18.80;64.50;;;;;;5041392;28;20025;-60
2023/06/13 07:12:37;;;;;;;8.48;4.22;;;18.80;64.20;;;;;;5028668;28;20487;-61
2023/06/13 07:15:03;;;;;;;8.63;4.38;;;18.90;64.10;;;;;;5040859;28;20045;-61
2023/06/13 07:17:30;;;;;;;12.32;5.38;;;18.90;63.80;;;;;;5022687;28;20505;-61
2023/06/13 07:19:56;;;;;;;7.95;4.35;;;18.90;63.70;;;;;;5038119;28;20037;-61
2023/06/13 07:22:21;;;;;;;7.07;4.40;;;19.00;63.90;;;;;;5035560;28;20031;-60
2023/06/13 07:24:47;;;;;;;7.15;4.40;;;19.00;64.10;;;;;;5045025;28;20052;-61
2023/06/13 07:27:16;;;;;;;8.45;4.88;;;19.10;63.80;;;;;;5032170;28;20033;-61
2023/06/13 07:29:42;;;;;;;10.45;4.60;;;19.10;64.00;;;;;;5040695;28;20052;-61
2023/06/13 07:32:08;;;;;;;10.48;4.40;;;19.20;63.90;;;;;;5036052;28;20419;-61
2023/06/13 07:34:33;;;;;;;8.60;4.57;;;19.20;63.70;;;;;;5030869;28;20025;-61
2023/06/13 07:36:59;;;;;;;7.15;5.35;;;19.20;63.60;;;;;;5043163;28;20037;-61
2023/06/13 07:39:25;;;;;;;8.45;4.68;;;19.30;63.90;;;;;;5041660;28;20040;-61
2023/06/13 07:41:50;;;;;;;6.90;4.40;;;19.30;63.70;;;;;;5039178;28;20030;-61
2023/06/13 07:44:16;;;;;;;9.00;4.57;;;19.30;63.70;;;;;;5041798;28;20045;-61
2023/06/13 07:46:42;;;;;;;10.60;5.00;;;19.40;63.60;;;;;;5039845;28;20045;-61
2023/06/13 07:49:07;;;;;;;7.15;5.10;;;19.50;63.40;;;;;;5042618;28;20491;-61
2023/06/13 07:51:33;;;;;;;8.43;4.47;;;19.60;63.30;;;;;;5042626;28;20033;-61
2023/06/13 07:53:59;;;;;;;9.02;4.80;;;19.60;63.50;;;;;;5050288;28;20041;-61
2023/06/13 07:56:25;;;;;;;6.90;4.70;;;19.60;63.30;;;;;;5045052;28;20407;-61
2023/06/13 07:58:51;;;;;;;7.18;4.90;;;19.70;63.50;;;;;;5050354;28;20043;-61
2023/06/13 08:01:17;;;;;;;8.40;4.88;;;19.80;63.60;;;;;;5027272;28;20045;-61
2023/06/13 08:03:45;;;;;;;8.98;5.43;;;19.80;63.50;;;;;;5025520;28;20034;-61
2023/06/13 08:06:11;;;;;;;8.55;4.85;;;19.80;63.40;;;;;;5044590;28;20364;-61
2023/06/13 08:08:36;;;;;;;9.15;5.07;;;19.90;63.10;;;;;;5025019;28;20041;-60
2023/06/13 08:11:02;;;;;;;9.90;4.82;;;20.00;63.00;;;;;;5049507;28;20048;-61
2023/06/13 08:13:27;;;;;;;9.90;5.15;;;20.10;63.40;;;;;;5036482;28;20456;-61
2023/06/13 08:15:53;;;;;;;9.90;5.18;;;20.30;63.20;;;;;;5041168;28;20045;-61
2023/06/13 08:18:19;;;;;;;10.02;5.47;;;20.40;63.20;;;;;;5032910;28;20038;-60
2023/06/13 08:20:45;;;;;;;9.75;5.32;;;20.60;62.90;;;;;;5024079;28;20080;-61
2023/06/13 08:23:12;;;;;;;7.05;4.95;;;20.80;62.60;;;;;;5047957;28;20445;-61
2023/06/13 08:25:37;;;;;;;11.88;5.30;;;21.10;62.80;;;;;;5042488;28;20120;-61
2023/06/13 08:28:06;;;;;;;8.68;5.53;;;21.40;62.50;;;;;;5050754;28;20127;-61
2023/06/13 08:30:32;;;;;;;7.85;5.15;;;21.70;62.10;;;;;;5039162;28;20060;-61
2023/06/13 08:33:01;;;;;;;7.72;5.70;;;22.00;61.50;;;;;;5043021;28;20034;-61
2023/06/13 08:35:28;;;;;;;11.27;5.20;;;22.30;61.10;;;;;;5049381;28;20045;-61
2023/06/13 08:37:53;;;;;;;6.32;4.82;;;22.60;60.30;;;;;;5021717;28;20041;-61
2023/06/13 08:40:19;;;;;;;7.55;5.22;;;22.90;59.10;;;;;;5043670;28;20509;-61
2023/06/13 08:42:46;;;;;;;10.38;5.00;;;23.10;58.60;;;;;;5043160;28;20386;-61
2023/06/13 08:45:12;;;;;;;9.50;4.95;;;23.30;58.50;;;;;;5037504;28;20542;-61
2023/06/13 08:47:39;;;;;;;9.35;4.30;;;23.60;58.30;;;;;;5034350;28;20045;-61
2023/06/13 08:50:10;;;;;;;7.32;4.70;;;23.80;58.10;;;;;;5046799;28;20037;-59
2023/06/13 08:52:41;;;;;;;7.78;4.70;;;24.10;57.30;;;;;;5026227;28;20498;-60
2023/06/13 08:55:12;;;;;;;6.55;4.68;;;24.40;56.40;;;;;;5039408;28;20029;-62
2023/06/13 08:57:39;;;;;;;9.88;4.75;;;24.60;55.80;;;;;;5044399;28;20045;-65
2023/06/13 09:00:09;;;;;;;5.72;4.13;;;24.80;55.70;;;;;;5019933;28;20116;-59
2023/06/13 09:02:36;;;;;;;7.13;4.38;;;25.00;55.00;;;;;;5042031;28;20499;-60
2023/06/13 09:05:03;;;;;;;9.65;4.20;;;25.20;54.40;;;;;;5016803;28;20092;-59
2023/06/13 09:07:30;;;;;;;11.48;4.43;;;25.30;54.10;;;;;;5029576;28;20057;-61
2023/06/13 09:09:57;;;;;;;7.20;4.47;;;25.50;54.00;;;;;;5000005;28;20064;-60
2023/06/13 09:12:23;;;;;;;6.78;4.68;;;25.60;53.70;;;;;;5033803;28;20033;-66
2023/06/13 09:14:49;;;;;;;6.22;4.40;;;25.60;53.70;;;;;;5041013;28;20115;-62
2023/06/13 09:17:18;;;;;;;7.18;4.18;;;25.70;53.50;;;;;;5023620;28;20127;-59
2023/06/13 09:19:43;;;;;;;9.63;4.70;;;26.00;52.60;;;;;;5028256;28;20060;-59
2023/06/13 09:22:09;;;;;;;5.47;4.35;;;26.10;52.60;;;;;;5040763;28;20057;-60
2023/06/13 09:24:36;;;;;;;7.32;5.00;;;26.40;52.40;;;;;;5027513;28;20056;-61
2023/06/13 09:27:03;;;;;;;7.45;4.35;;;26.50;51.60;;;;;;5017705;28;20052;-60
2023/06/13 09:29:36;;;;;;;6.90;4.38;;;26.70;50.90;;;;;;5023774;28;20044;-68
2023/06/13 09:32:03;;;;;;;8.25;4.30;;;26.80;50.70;;;;;;5014851;28;20040;-60
2023/06/13 09:34:28;;;;;;;6.80;3.95;;;27.00;51.00;;;;;;5012846;28;20483;-59
2023/06/13 09:36:58;;;;;;;11.02;4.30;;;27.10;50.90;;;;;;5031181;28;20037;-59
2023/06/13 09:39:25;;;;;;;6.90;4.10;;;27.40;50.30;;;;;;5020535;28;20063;-59
2023/06/13 09:41:59;;;;;;;6.93;4.15;;;27.60;50.00;;;;;;5027189;28;20088;-67
2023/06/13 09:44:25;;;;;;;7.47;4.30;;;27.70;48.80;;;;;;5027234;28;20041;-59
2023/06/13 09:46:54;;;;;;;6.97;4.18;;;27.80;49.20;;;;;;5040143;28;20554;-59
2023/06/13 09:49:20;;;;;;;5.40;3.80;;;27.90;48.60;;;;;;5046627;28;20379;-63
2023/06/13 09:51:46;;;;;;;5.60;4.20;;;28.10;48.40;;;;;;5042486;28;20041;-67
2023/06/13 09:54:13;;;;;;;8.10;4.60;;;28.10;48.80;;;;;;5042246;28;20058;-60
2023/06/13 09:56:43;;;;;;;10.45;4.10;;;28.30;48.50;;;;;;5040581;28;20048;-60
2023/06/13 09:59:17;;;;;;;6.88;4.10;;;28.40;47.90;;;;;;5027733;28;20425;-59
2023/06/13 10:01:49;;;;;;;7.20;4.28;;;28.50;47.90;;;;;;5045708;28;20204;-62
2023/06/13 10:04:18;;;;;;;7.53;4.07;;;28.60;47.60;;;;;;5033543;28;20075;-61
2023/06/13 10:06:44;;;;;;;8.65;4.05;;;28.70;47.00;;;;;;5028442;28;20044;-59
2023/06/13 10:09:12;;;;;;;5.75;4.03;;;28.80;47.40;;;;;;5043215;28;20052;-60
2023/06/13 10:11:43;;;;;;;8.13;4.13;;;28.90;47.50;;;;;;5044522;28;20037;-60
2023/06/13 10:14:22;;;;;;;5.90;3.92;;;29.00;46.80;;;;;;5017786;28;20041;-62
2023/06/13 10:16:55;;;;;;;6.53;4.00;;;29.10;45.60;;;;;;5035928;28;20503;-59
2023/06/13 10:19:23;;;;;;;7.53;3.80;;;29.20;45.30;;;;;;5036500;28;20051;-61
2023/06/13 10:21:49;;;;;;;5.57;4.07;;;29.30;45.20;;;;;;5018973;28;20049;-64
2023/06/13 10:24:16;;;;;;;5.88;4.07;;;29.30;45.10;;;;;;5040723;28;20069;-61
2023/06/13 10:26:45;;;;;;;7.25;4.00;;;29.40;44.80;;;;;;5037573;28;20084;-60
2023/06/13 10:29:20;;;;;;;5.78;3.97;;;29.60;44.90;;;;;;5017866;28;20048;-64
2023/06/13 10:32:12;;;;;;;4.90;4.03;;;29.70;44.50;;;;;;5038018;28;20113;-60
2023/06/13 10:35:01;;;;;;;6.25;4.30;;;29.90;44.50;;;;;;5044687;28;20054;-60
2023/06/13 10:37:33;;;;;;;7.20;3.90;;;30.00;43.40;;;;;;5012307;28;20049;-63
2023/06/13 10:40:20;;;;;;;8.13;3.88;;;29.90;44.20;;;;;;5023438;28;20150;-59
2023/06/13 10:42:59;;;;;;;7.03;4.18;;;29.90;42.10;;;;;;5038453;28;20069;-61
2023/06/13 10:45:27;;;;;;;6.13;4.40;;;29.70;42.50;;;;;;5036553;28;20037;-59
2023/06/13 10:47:52;;;;;;;10.18;4.20;;;29.70;43.40;;;;;;5038784;28;20072;-60
2023/06/13 10:50:20;;;;;;;6.43;4.47;;;29.70;43.00;;;;;;5022902;28;20065;-60
2023/06/13 10:52:48;;;;;;;6.72;4.28;;;29.90;43.40;;;;;;5013156;28;20407;-60
2023/06/13 10:55:25;;;;;;;9.48;4.18;;;30.00;43.20;;;;;;5026563;28;20550;-63
2023/06/13 10:58:00;;;;;;;6.22;4.00;;;30.20;41.90;;;;;;5022174;28;20049;-60
2023/06/13 11:00:34;;;;;;;11.18;4.43;;;30.20;41.60;;;;;;5039997;28;20040;-66
2023/06/13 11:03:13;;;;;;;5.97;4.00;;;30.30;42.20;;;;;;5035833;28;20109;-63
2023/06/13 11:05:47;;;;;;;5.88;4.40;;;30.40;41.60;;;;;;5046267;28;20036;-60
2023/06/13 11:08:24;;;;;;;7.07;4.72;;;30.40;41.60;;;;;;5018553;28;20041;-60
2023/06/13 11:10:52;;;;;;;7.88;4.70;;;30.50;40.50;;;;;;5026397;28;20051;-65
2023/06/13 11:13:21;;;;;;;5.43;4.05;;;30.60;41.00;;;;;;5037525;28;20436;-63
2023/06/13 11:15:47;;;;;;;6.47;4.40;;;30.60;39.90;;;;;;5015391;28;20404;-61
2023/06/13 11:18:14;;;;;;;6.40;4.82;;;30.70;40.50;;;;;;5023345;28;20086;-60
2023/06/13 11:20:59;;;;;;;6.00;4.78;;;30.70;40.10;;;;;;5043817;28;20502;-60
2023/06/13 11:23:33;;;;;;;5.63;4.25;;;30.80;39.30;;;;;;5037044;28;20487;-60
2023/06/13 11:26:00;;;;;;;6.40;4.28;;;30.90;39.10;;;;;;5045574;28;20111;-61
2023/06/13 11:28:26;;;;;;;6.10;4.55;;;30.90;39.40;;;;;;5029217;28;20081;-60
2023/06/13 11:30:52;;;;;;;5.40;4.50;;;31.00;39.70;;;;;;5035710;28;20042;-60
2023/06/13 11:33:19;;;;;;;7.70;4.43;;;31.10;39.90;;;;;;5044932;28;20033;-60
2023/06/13 11:35:56;;;;;;;7.20;4.55;;;31.20;39.80;;;;;;5042596;28;20116;-64
2023/06/13 11:38:43;;;;;;;6.20;4.57;;;31.20;39.50;;;;;;5049428;28;20483;-60
2023/06/13 11:41:09;;;;;;;6.03;4.30;;;31.30;39.70;;;;;;5046084;28;20072;-65
2023/06/13 11:43:35;;;;;;;6.93;4.25;;;31.20;39.60;;;;;;5050156;28;20690;-60
2023/06/13 11:46:02;;;;;;;5.75;4.45;;;31.20;39.70;;;;;;5026606;28;20045;-68
2023/06/13 11:48:28;;;;;;;6.05;4.00;;;31.10;39.50;;;;;;5044357;28;20045;-61
2023/06/13 11:51:13;;;;;;;5.72;4.40;;;31.10;39.70;;;;;;5048047;28;20102;-61
2023/06/13 11:53:53;;;;;;;4.88;4.00;;;31.20;39.30;;;;;;5036290;28;20469;-64
2023/06/13 11:56:22;;;;;;;4.68;4.15;;;31.30;39.60;;;;;;5024650;28;20068;-61
2023/06/13 11:58:48;;;;;;;7.43;4.10;;;31.40;39.50;;;;;;5041563;28;20041;-61
2023/06/13 12:01:15;;;;;;;6.85;4.00;;;31.40;39.60;;;;;;5045717;28;20048;-60
2023/06/13 12:03:45;;;;;;;5.53;4.22;;;31.40;39.50;;;;;;5005168;28;20045;-60
2023/06/13 12:06:12;;;;;;;6.72;3.95;;;31.60;38.90;;;;;;5049623;28;20036;-60
2023/06/13 12:08:41;;;;;;;4.97;4.28;;;31.60;38.20;;;;;;5032263;28;20046;-61
2023/06/13 12:11:10;;;;;;;7.07;4.28;;;31.70;38.00;;;;;;5043145;28;20088;-64
2023/06/13 12:13:36;;;;;;;5.82;3.97;;;31.60;38.00;;;;;;5039890;28;20411;-63
2023/06/13 12:16:03;;;;;;;4.05;3.65;;;31.60;37.70;;;;;;5016739;28;20042;-63
2023/06/13 12:18:29;;;;;;;8.15;4.28;;;31.50;37.40;;;;;;5024052;28;20049;-60
2023/06/13 12:20:58;;;;;;;7.70;4.47;;;31.60;37.60;;;;;;5034764;28;20034;-60
2023/06/13 12:23:24;;;;;;;4.47;4.05;;;31.60;37.40;;;;;;5029826;28;20476;-67
2023/06/13 12:25:50;;;;;;;7.68;4.72;;;31.60;37.50;;;;;;5027984;28;20038;-62
2023/06/13 12:28:19;;;;;;;6.20;4.13;;;31.60;37.10;;;;;;5036152;28;20067;-61
2023/06/13 12:30:49;;;;;;;5.93;4.40;;;31.60;37.40;;;;;;5034824;28;20046;-60
2023/06/13 12:33:19;;;;;;;6.70;4.50;;;31.60;38.10;;;;;;5026285;28;20071;-60
2023/06/13 12:35:56;;;;;;;6.55;4.20;;;31.70;38.50;;;;;;5021551;28;20050;-60
2023/06/13 12:38:27;;;;;;;7.38;4.10;;;31.80;38.20;;;;;;5026853;28;20082;-60
2023/06/13 12:40:52;;;;;;;5.97;4.45;;;31.90;37.80;;;;;;5037926;28;20045;-63
2023/06/13 12:43:29;;;;;;;6.90;4.30;;;31.80;37.90;;;;;;5016986;28;20045;-66
2023/06/13 12:45:59;;;;;;;5.68;4.43;;;31.70;37.50;;;;;;5021400;28;20069;-62
2023/06/13 12:48:25;;;;;;;7.40;4.53;;;31.60;37.50;;;;;;5046384;28;20045;-60